createdAt,value
2023-06-22T00:00:44.987Z,101351.41
2023-06-22T00:02:48.550Z,101351.66
2023-06-22T00:04:51.994Z,101351.94
2023-06-22T00:06:55.418Z,101353.88
2023-06-22T00:08:58.764Z,101350.50
2023-06-22T00:11:03.542Z,101356.81
2023-06-22T00:13:06.617Z,101363.41
2023-06-22T00:15:10.547Z,101367.34
2023-06-22T00:17:13.917Z,101362.31
2023-06-22T00:19:17.676Z,101361.00
2023-06-22T00:21:21.579Z,101370.00
2023-06-22T00:23:24.994Z,101367.47
2023-06-22T00:25:28.456Z,101364.91
2023-06-22T00:27:33.197Z,101364.06
2023-06-22T00:29:36.264Z,101368.81
2023-06-22T00:31:39.701Z,101363.47
2023-06-22T00:33:43.050Z,101366.28
2023-06-22T00:35:46.399Z,101366.41
2023-06-22T00:37:49.787Z,101367.38
2023-06-22T00:39:53.202Z,101369.47
2023-06-22T00:41:57.438Z,101373.25
2023-06-22T00:44:02.215Z,101380.81
2023-06-22T00:46:05.657Z,101378.53
2023-06-22T00:48:10.703Z,101381.56
2023-06-22T00:50:22.077Z,101384.50
2023-06-22T00:52:30.251Z,101379.41
2023-06-22T00:54:33.669Z,101386.44
2023-06-22T00:56:38.850Z,101388.41
2023-06-22T00:58:42.862Z,101381.72
2023-06-22T01:00:47.930Z,101384.03
2023-06-22T01:02:52.862Z,101388.28
2023-06-22T01:04:56.674Z,101385.16
2023-06-22T01:07:08.933Z,101391.81
2023-06-22T01:09:17.736Z,101397.44
2023-06-22T01:11:25.948Z,101394.75
2023-06-22T01:13:38.066Z,101399.38
2023-06-22T01:15:47.299Z,101393.41
2023-06-22T01:17:54.870Z,101404.88
2023-06-22T01:19:58.934Z,101397.94
2023-06-22T01:22:04.028Z,101403.50
2023-06-22T01:24:24.618Z,101409.22
2023-06-22T01:26:37.313Z,101400.84
2023-06-22T01:28:50.751Z,101397.66
2023-06-22T01:31:04.678Z,101401.50
2023-06-22T01:33:08.707Z,101406.28
2023-06-22T01:35:13.230Z,101411.75
2023-06-22T01:37:17.771Z,101415.50
2023-06-22T01:39:21.815Z,101421.81
2023-06-22T01:41:28.431Z,101413.78
2023-06-22T01:43:32.601Z,101418.28
2023-06-22T01:45:37.347Z,101424.34
2023-06-22T01:47:41.073Z,101421.69
2023-06-22T01:49:47.013Z,101420.59
2023-06-22T01:51:50.414Z,101412.34
2023-06-22T01:53:53.763Z,101413.19
2023-06-22T01:55:58.073Z,101417.56
2023-06-22T01:58:01.524Z,101432.88
2023-06-22T02:00:07.421Z,101427.66
2023-06-22T02:02:28.076Z,101431.28
2023-06-22T02:04:37.764Z,101440.28
2023-06-22T02:06:44.618Z,101432.25
2023-06-22T02:08:52.135Z,101437.72
2023-06-22T02:10:57.881Z,101440.41
2023-06-22T02:13:01.862Z,101449.50
2023-06-22T02:15:06.872Z,101439.69
2023-06-22T02:17:11.732Z,101439.44
2023-06-22T02:19:19.717Z,101439.31
2023-06-22T02:21:23.850Z,101443.56
2023-06-22T02:23:27.859Z,101441.84
2023-06-22T02:25:31.300Z,101444.28
2023-06-22T02:27:34.717Z,101439.81
2023-06-22T02:29:38.347Z,101449.63
2023-06-22T02:31:41.831Z,101449.63
2023-06-22T02:33:47.084Z,101451.59
2023-06-22T02:35:52.018Z,101449.03
2023-06-22T02:37:55.631Z,101453.63
2023-06-22T02:39:58.940Z,101452.91
2023-06-22T02:42:02.592Z,101447.78
2023-06-22T02:44:06.412Z,101445.47
2023-06-22T02:46:09.748Z,101447.44
2023-06-22T02:48:13.596Z,101444.38
2023-06-22T02:50:17.131Z,101443.63
2023-06-22T02:52:22.377Z,101448.13
2023-06-22T02:54:25.516Z,101456.28
2023-06-22T02:56:31.582Z,101450.81
2023-06-22T02:58:39.867Z,101453.59
2023-06-22T03:00:47.006Z,101451.88
2023-06-22T03:02:51.625Z,101455.66
2023-06-22T03:04:56.212Z,101455.13
2023-06-22T03:07:02.625Z,101458.28
2023-06-22T03:09:09.644Z,101455.09
2023-06-22T03:11:14.053Z,101454.59
2023-06-22T03:13:18.067Z,101450.44
2023-06-22T03:15:23.168Z,101464.16
2023-06-22T03:17:28.360Z,101467.91
2023-06-22T03:19:32.519Z,101461.22
2023-06-22T03:21:36.125Z,101456.06
2023-06-22T03:23:39.500Z,101457.19
2023-06-22T03:25:45.862Z,101455.72
2023-06-22T03:27:49.436Z,101461.25
2023-06-22T03:29:52.772Z,101465.00
2023-06-22T03:31:56.300Z,101456.38
2023-06-22T03:33:59.784Z,101457.44
2023-06-22T03:36:03.193Z,101454.25
2023-06-22T03:38:06.577Z,101458.25
2023-06-22T03:40:11.112Z,101461.13
2023-06-22T03:42:15.928Z,101467.56
2023-06-22T03:44:19.271Z,101463.28
2023-06-22T03:46:22.738Z,101464.25
2023-06-22T03:48:26.288Z,101461.69
2023-06-22T03:50:30.177Z,101459.94
2023-06-22T03:52:33.858Z,101466.34
2023-06-22T03:54:37.208Z,101469.25
2023-06-22T03:56:40.600Z,101469.47
2023-06-22T03:58:46.214Z,101473.84
2023-06-22T04:00:50.202Z,101473.75
2023-06-22T04:02:53.845Z,101472.78
2023-06-22T04:04:57.293Z,101475.34
2023-06-22T04:07:01.114Z,101481.41
2023-06-22T04:09:04.708Z,101480.69
2023-06-22T04:11:08.011Z,101493.03
2023-06-22T04:13:11.760Z,101482.59
2023-06-22T04:15:16.795Z,101484.41
2023-06-22T04:17:20.565Z,101486.97
2023-06-22T04:19:24.531Z,101492.06
2023-06-22T04:21:27.926Z,101490.28
2023-06-22T04:23:31.243Z,101486.75
2023-06-22T04:25:34.633Z,101485.91
2023-06-22T04:27:41.385Z,101487.31
2023-06-22T04:29:50.167Z,101493.38
2023-06-22T04:31:57.358Z,101493.38
2023-06-22T04:34:07.265Z,101492.53
2023-06-22T04:36:14.460Z,101493.38
2023-06-22T04:38:17.834Z,101494.25
2023-06-22T04:40:21.275Z,101497.75
2023-06-22T04:42:24.653Z,101497.44
2023-06-22T04:44:28.386Z,101492.69
2023-06-22T04:46:31.758Z,101496.13
2023-06-22T04:48:36.556Z,101494.06
2023-06-22T04:50:40.651Z,101492.03
2023-06-22T04:52:44.008Z,101495.47
2023-06-22T04:54:50.065Z,101497.16
2023-06-22T04:56:57.892Z,101503.97
2023-06-22T04:59:01.456Z,101500.97
2023-06-22T05:01:05.163Z,101510.34
2023-06-22T05:03:20.026Z,101499.44
2023-06-22T05:05:25.652Z,101501.44
2023-06-22T05:07:29.183Z,101503.44
2023-06-22T05:09:34.870Z,101502.00
2023-06-22T05:11:38.229Z,101502.28
2023-06-22T05:13:41.815Z,101499.03
2023-06-22T05:15:45.441Z,101509.13
2023-06-22T05:17:48.895Z,101511.34
2023-06-22T05:19:52.335Z,101510.00
2023-06-22T05:21:57.076Z,101503.59
2023-06-22T05:24:01.510Z,101514.28
2023-06-22T05:26:04.888Z,101509.88
2023-06-22T05:28:12.900Z,101515.59
2023-06-22T05:30:18.343Z,101517.75
2023-06-22T05:32:23.416Z,101519.31
2023-06-22T05:34:27.195Z,101517.63
2023-06-22T05:36:30.547Z,101511.31
2023-06-22T05:38:35.484Z,101516.28
2023-06-22T05:40:38.906Z,101514.97
2023-06-22T05:42:42.247Z,101512.19
2023-06-22T05:44:45.680Z,101515.25
2023-06-22T05:46:51.079Z,101509.09
2023-06-22T05:48:54.482Z,101515.59
2023-06-22T05:50:58.020Z,101516.81
2023-06-22T05:53:01.334Z,101511.97
2023-06-22T05:55:07.103Z,101506.22
2023-06-22T05:57:10.443Z,101514.53
2023-06-22T05:59:13.832Z,101499.75
2023-06-22T06:01:17.981Z,101501.94
2023-06-22T06:03:21.504Z,101508.91
2023-06-22T06:05:26.702Z,101503.22
2023-06-22T06:07:30.216Z,101515.63
2023-06-22T06:09:33.564Z,101501.66
2023-06-22T06:11:38.474Z,101500.88
2023-06-22T06:13:42.593Z,101500.28
2023-06-22T06:15:46.268Z,101505.06
2023-06-22T06:17:50.436Z,101495.97
2023-06-22T06:19:54.028Z,101490.84
2023-06-22T06:21:57.819Z,101498.91
2023-06-22T06:24:01.472Z,101502.59
2023-06-22T06:26:08.359Z,101497.56
2023-06-22T06:28:13.473Z,101507.41
2023-06-22T06:30:18.124Z,101503.66
2023-06-22T06:32:21.894Z,101498.06
2023-06-22T06:34:25.438Z,101495.84
2023-06-22T06:36:29.191Z,101492.66
2023-06-22T06:38:33.274Z,101494.19
2023-06-22T06:40:37.078Z,101501.06
2023-06-22T06:42:43.149Z,101509.00
2023-06-22T06:44:48.873Z,101506.69
2023-06-22T06:46:52.489Z,101514.00
2023-06-22T06:48:55.781Z,101509.06
2023-06-22T06:50:59.145Z,101510.75
2023-06-22T06:53:03.110Z,101517.63
2023-06-22T06:55:09.266Z,101514.91
2023-06-22T06:57:14.635Z,101514.56
2023-06-22T06:59:18.184Z,101517.13
2023-06-22T07:01:23.026Z,101515.25
2023-06-22T07:03:26.434Z,101517.88
2023-06-22T07:05:29.855Z,101520.88
2023-06-22T07:07:34.341Z,101513.66
2023-06-22T07:09:39.231Z,101515.00
2023-06-22T07:11:42.545Z,101515.41
2023-06-22T07:13:45.987Z,101520.44
2023-06-22T07:15:49.476Z,101521.28
2023-06-22T07:17:54.265Z,101516.72
2023-06-22T07:19:57.827Z,101517.41
2023-06-22T07:22:01.253Z,101511.00
2023-06-22T07:24:06.993Z,101515.09
2023-06-22T07:26:10.628Z,101517.88
2023-06-22T07:28:13.990Z,101515.75
2023-06-22T07:30:17.552Z,101513.97
2023-06-22T07:32:20.962Z,101519.53
2023-06-22T07:34:25.900Z,101519.22
2023-06-22T07:36:31.370Z,101525.16
2023-06-22T07:38:35.092Z,101515.84
2023-06-22T07:40:39.391Z,101519.88
2023-06-22T07:42:43.065Z,101520.06
2023-06-22T07:44:47.296Z,101520.06
2023-06-22T07:46:51.337Z,101527.00
2023-06-22T07:48:56.848Z,101536.41
2023-06-22T07:51:02.362Z,101531.97
2023-06-22T07:53:06.374Z,101532.50
2023-06-22T07:55:11.331Z,101525.66
2023-06-22T07:57:15.231Z,101529.72
2023-06-22T07:59:19.200Z,101528.50
2023-06-22T08:01:23.579Z,101525.16
2023-06-22T08:03:27.959Z,101539.47
2023-06-22T08:05:32.403Z,101542.56
2023-06-22T08:07:39.111Z,101539.13
2023-06-22T08:09:51.099Z,101537.59
2023-06-22T08:11:55.445Z,101540.00
2023-06-22T08:14:00.091Z,101540.97
2023-06-22T08:16:03.939Z,101532.56
2023-06-22T08:18:08.202Z,101537.72
2023-06-22T08:20:13.960Z,101542.19
2023-06-22T08:22:20.353Z,101538.47
2023-06-22T08:24:25.598Z,101537.00
2023-06-22T08:26:30.214Z,101541.41
2023-06-22T08:28:33.752Z,101544.53
2023-06-22T08:30:38.032Z,101550.88
2023-06-22T08:32:42.211Z,101545.78
2023-06-22T08:34:46.893Z,101548.63
2023-06-22T08:36:52.986Z,101543.59
2023-06-22T08:39:02.783Z,101552.22
2023-06-22T08:41:08.457Z,101552.69
2023-06-22T08:43:12.457Z,101555.66
2023-06-22T08:45:17.346Z,101556.13
2023-06-22T08:47:21.988Z,101554.31
2023-06-22T08:49:25.592Z,101551.06
2023-06-22T08:51:30.637Z,101551.28
2023-06-22T08:53:36.600Z,101550.13
2023-06-22T08:55:40.601Z,101552.16
2023-06-22T08:57:46.092Z,101556.94
2023-06-22T08:59:50.351Z,101548.34
2023-06-22T09:01:54.555Z,101549.78
2023-06-22T09:03:59.788Z,101550.91
2023-06-22T09:06:03.584Z,101557.72
2023-06-22T09:08:07.586Z,101560.25
2023-06-22T09:10:12.392Z,101563.38
2023-06-22T09:12:15.892Z,101554.59
2023-06-22T09:14:21.558Z,101569.59
2023-06-22T09:16:25.383Z,101567.34
2023-06-22T09:18:29.610Z,101561.69
2023-06-22T09:20:33.876Z,101562.81
2023-06-22T09:22:38.157Z,101567.03
2023-06-22T09:24:41.963Z,101560.66
2023-06-22T09:26:46.388Z,101558.13
2023-06-22T09:28:50.389Z,101560.81
2023-06-22T09:30:59.472Z,101558.16
2023-06-22T09:33:03.682Z,101558.56
2023-06-22T09:35:09.762Z,101550.47
2023-06-22T09:37:13.822Z,101548.22
2023-06-22T09:39:17.655Z,101543.84
2023-06-22T09:41:21.549Z,101541.56
2023-06-22T09:43:25.632Z,101549.94
2023-06-22T09:45:29.427Z,101544.97
2023-06-22T09:47:34.975Z,101551.75
2023-06-22T09:49:47.814Z,101550.91
2023-06-22T09:51:52.508Z,101552.19
2023-06-22T09:53:56.781Z,101553.31
2023-06-22T09:56:01.177Z,101553.59
2023-06-22T09:58:05.098Z,101547.81
2023-06-22T10:00:12.956Z,101544.28
2023-06-22T10:02:16.853Z,101548.97
2023-06-22T10:04:22.552Z,101550.06
2023-06-22T10:06:27.476Z,101558.00
2023-06-22T10:08:31.359Z,101561.13
2023-06-22T10:10:35.576Z,101554.31
2023-06-22T10:12:45.819Z,101555.72
2023-06-22T10:14:49.771Z,101554.03
2023-06-22T10:16:56.208Z,101558.13
2023-06-22T10:19:00.992Z,101557.28
2023-06-22T10:21:06.759Z,101560.69
2023-06-22T10:23:10.664Z,101567.34
2023-06-22T10:25:15.788Z,101559.28
2023-06-22T10:27:20.120Z,101563.22
2023-06-22T10:29:24.397Z,101561.97
2023-06-22T10:31:28.808Z,101555.03
2023-06-22T10:33:32.988Z,101563.38
2023-06-22T10:35:38.817Z,101573.84
2023-06-22T10:37:45.754Z,101567.38
2023-06-22T10:39:49.613Z,101566.78
2023-06-22T10:41:53.468Z,101566.91
2023-06-22T10:43:57.772Z,101565.22
2023-06-22T10:46:01.894Z,101560.53
2023-06-22T10:48:06.447Z,101559.84
2023-06-22T10:50:10.833Z,101558.97
2023-06-22T10:52:15.139Z,101566.06
2023-06-22T10:54:21.273Z,101564.78
2023-06-22T10:56:25.452Z,101568.19
2023-06-22T10:58:29.745Z,101570.31
2023-06-22T11:00:34.278Z,101572.88
2023-06-22T11:02:38.423Z,101577.13
2023-06-22T11:04:42.612Z,101581.75
2023-06-22T11:06:46.823Z,101570.19
2023-06-22T11:09:04.274Z,101570.47
2023-06-22T11:11:10.575Z,101572.13
2023-06-22T11:13:14.885Z,101574.38
2023-06-22T11:15:19.534Z,101572.97
2023-06-22T11:17:23.446Z,101574.66
2023-06-22T11:19:27.988Z,101576.53
2023-06-22T11:21:32.522Z,101584.84
2023-06-22T11:23:37.384Z,101581.16
2023-06-22T11:25:43.861Z,101573.84
2023-06-22T11:27:49.686Z,101575.25
2023-06-22T11:29:54.950Z,101578.09
2023-06-22T11:31:58.982Z,101569.44
2023-06-22T11:34:03.849Z,101571.72
2023-06-22T11:36:09.079Z,101575.13
2023-06-22T11:38:13.529Z,101575.13
2023-06-22T11:40:19.239Z,101572.88
2023-06-22T11:42:24.800Z,101567.06
2023-06-22T11:44:30.845Z,101569.88
2023-06-22T11:46:36.385Z,101569.94
2023-06-22T11:48:41.015Z,101579.13
2023-06-22T11:50:45.334Z,101589.56
2023-06-22T11:52:50.056Z,101579.22
2023-06-22T11:54:54.115Z,101570.91
2023-06-22T11:56:58.509Z,101569.19
2023-06-22T11:59:02.840Z,101568.50
2023-06-22T12:01:08.349Z,101566.19
2023-06-22T12:03:12.709Z,101570.31
2023-06-22T12:05:17.409Z,101566.75
2023-06-22T12:07:21.478Z,101570.44
2023-06-22T12:09:25.946Z,101575.56
2023-06-22T12:11:30.139Z,101574.69
2023-06-22T12:13:34.275Z,101586.75
2023-06-22T12:15:38.546Z,101581.22
2023-06-22T12:17:44.111Z,101570.75
2023-06-22T12:19:48.390Z,101574.97
2023-06-22T12:21:52.296Z,101562.66
2023-06-22T12:23:56.447Z,101571.00
2023-06-22T12:26:01.268Z,101578.09
2023-06-22T12:28:05.856Z,101573.56
2023-06-22T12:30:11.411Z,101570.16
2023-06-22T12:32:15.838Z,101571.28
2023-06-22T12:34:21.496Z,101566.50
2023-06-22T12:36:26.172Z,101567.78
2023-06-22T12:38:30.231Z,101568.34
2023-06-22T12:40:34.654Z,101573.88
2023-06-22T12:42:38.732Z,101576.84
2023-06-22T12:44:43.154Z,101570.47
2023-06-22T12:46:47.385Z,101579.81
2023-06-22T12:48:51.208Z,101583.63
2023-06-22T12:50:56.381Z,101580.94
2023-06-22T12:53:01.380Z,101576.28
2023-06-22T12:55:05.188Z,101577.66
2023-06-22T12:57:09.468Z,101566.31
2023-06-22T12:59:13.414Z,101563.50
2023-06-22T13:01:19.496Z,101566.22
2023-06-22T13:03:23.394Z,101561.81
2023-06-22T13:05:27.245Z,101558.25
2023-06-22T13:07:32.669Z,101556.59
2023-06-22T13:09:36.700Z,101564.81
2023-06-22T13:11:41.722Z,101557.84
2023-06-22T13:13:47.615Z,101561.66
2023-06-22T13:15:51.469Z,101560.25
2023-06-22T13:17:55.202Z,101560.09
2023-06-22T13:19:58.956Z,101558.78
2023-06-22T13:22:03.887Z,101561.63
2023-06-22T13:24:09.470Z,101563.91
2023-06-22T13:26:13.152Z,101557.56
2023-06-22T13:28:27.803Z,101558.09
2023-06-22T13:30:33.471Z,101550.31
2023-06-22T13:32:37.040Z,101555.25
2023-06-22T13:34:40.874Z,101551.84
2023-06-22T13:36:44.566Z,101554.56
2023-06-22T13:38:48.628Z,101545.66
2023-06-22T13:40:53.768Z,101545.69
2023-06-22T13:42:57.832Z,101547.78
2023-06-22T13:45:02.164Z,101549.22
2023-06-22T13:47:06.988Z,101550.78
2023-06-22T13:49:10.956Z,101553.47
2023-06-22T13:51:14.673Z,101542.13
2023-06-22T13:53:18.521Z,101550.91
2023-06-22T13:55:22.398Z,101537.03
2023-06-22T13:57:27.852Z,101539.56
2023-06-22T13:59:32.204Z,101539.03
2023-06-22T14:01:36.046Z,101543.84
2023-06-22T14:03:39.870Z,101539.72
2023-06-22T14:05:44.111Z,101537.88
2023-06-22T14:07:48.276Z,101541.97
2023-06-22T14:09:51.992Z,101539.59
2023-06-22T14:11:57.301Z,101539.28
2023-06-22T14:14:02.602Z,101527.97
2023-06-22T14:16:07.317Z,101534.72
2023-06-22T14:18:10.814Z,101532.97
2023-06-22T14:20:14.823Z,101524.13
2023-06-22T14:22:18.716Z,101530.38
2023-06-22T14:24:25.374Z,101531.94
2023-06-22T14:26:30.089Z,101536.19
2023-06-22T14:28:33.672Z,101533.28
2023-06-22T14:30:38.755Z,101527.97
2023-06-22T14:32:42.675Z,101530.09
2023-06-22T14:34:46.676Z,101528.53
2023-06-22T14:36:50.973Z,101535.78
2023-06-22T14:38:56.758Z,101532.81
2023-06-22T14:41:13.272Z,101531.66
2023-06-22T14:43:18.071Z,101534.66
2023-06-22T14:45:21.728Z,101536.91
2023-06-22T14:47:27.165Z,101535.19
2023-06-22T14:49:30.975Z,101541.00
2023-06-22T14:51:34.879Z,101539.59
2023-06-22T14:53:38.472Z,101532.50
2023-06-22T14:55:42.382Z,101528.00
2023-06-22T14:57:46.001Z,101522.19
2023-06-22T14:59:49.940Z,101525.44
2023-06-22T15:01:54.027Z,101530.09
2023-06-22T15:03:59.661Z,101531.91
2023-06-22T15:06:03.656Z,101533.59
2023-06-22T15:08:07.332Z,101521.16
2023-06-22T15:10:12.536Z,101525.16
2023-06-22T15:12:16.599Z,101531.09
2023-06-22T15:14:20.505Z,101539.44
2023-06-22T15:16:24.428Z,101532.97
2023-06-22T15:18:28.260Z,101524.00
2023-06-22T15:20:33.625Z,101531.53
2023-06-22T15:22:37.757Z,101522.47
2023-06-22T15:24:41.459Z,101519.22
2023-06-22T15:26:45.169Z,101522.84
2023-06-22T15:28:49.359Z,101516.38
2023-06-22T15:30:53.328Z,101520.91
2023-06-22T15:32:57.342Z,101513.84
2023-06-22T15:35:01.423Z,101511.56
2023-06-22T15:37:07.038Z,101508.75
2023-06-22T15:39:11.079Z,101505.06
2023-06-22T15:41:15.025Z,101501.81
2023-06-22T15:43:18.690Z,101495.16
2023-06-22T15:45:22.463Z,101498.41
2023-06-22T15:47:26.140Z,101502.38
2023-06-22T15:49:29.867Z,101500.53
2023-06-22T15:51:33.502Z,101501.53
2023-06-22T15:53:38.586Z,101500.38
2023-06-22T15:55:42.225Z,101500.38
2023-06-22T15:57:48.173Z,101496.28
2023-06-22T15:59:51.990Z,101500.38
2023-06-22T16:01:56.821Z,101493.03
2023-06-22T16:04:00.543Z,101489.91
2023-06-22T16:06:04.120Z,101480.44
2023-06-22T16:08:12.773Z,101491.59
2023-06-22T16:10:19.643Z,101492.88
2023-06-22T16:12:23.414Z,101492.88
2023-06-22T16:14:27.278Z,101489.75
2023-06-22T16:16:30.890Z,101494.09
2023-06-22T16:18:34.580Z,101494.94
2023-06-22T16:20:38.789Z,101495.97
2023-06-22T16:22:42.420Z,101498.66
2023-06-22T16:24:45.998Z,101498.81
2023-06-22T16:26:51.614Z,101498.53
2023-06-22T16:28:55.427Z,101502.06
2023-06-22T16:30:59.134Z,101494.28
2023-06-22T16:33:03.864Z,101499.09
2023-06-22T16:35:08.614Z,101495.69
2023-06-22T16:37:12.339Z,101490.03
2023-06-22T16:39:16.675Z,101495.41
2023-06-22T16:41:20.572Z,101494.28
2023-06-22T16:43:25.705Z,101489.63
2023-06-22T16:45:29.696Z,101496.56
2023-06-22T16:47:36.057Z,101489.22
2023-06-22T16:49:40.108Z,101486.41
2023-06-22T16:51:43.971Z,101483.97
2023-06-22T16:53:49.096Z,101489.19
2023-06-22T16:55:53.895Z,101481.56
2023-06-22T16:57:58.509Z,101480.84
2023-06-22T17:00:03.799Z,101479.28
2023-06-22T17:02:13.963Z,101474.50
2023-06-22T17:04:21.490Z,101480.97
2023-06-22T17:06:25.424Z,101472.44
2023-06-22T17:08:34.414Z,101481.78
2023-06-22T17:10:38.636Z,101482.50
2023-06-22T17:12:42.980Z,101477.81
2023-06-22T17:14:47.267Z,101477.69
2023-06-22T17:16:52.821Z,101480.38
2023-06-22T17:21:06.626Z,101480.16
2023-06-22T17:23:10.455Z,101479.72
2023-06-22T17:25:16.538Z,101475.59
2023-06-22T17:27:29.128Z,101474.78
2023-06-22T17:29:34.227Z,101473.03
2023-06-22T17:31:43.263Z,101478.28
2023-06-22T17:33:51.798Z,101478.16
2023-06-22T17:35:55.758Z,101482.41
2023-06-22T17:38:01.414Z,101477.75
2023-06-22T17:40:06.068Z,101487.50
2023-06-22T17:42:09.782Z,101483.69
2023-06-22T17:44:15.487Z,101477.03
2023-06-22T17:46:19.269Z,101484.25
2023-06-22T17:48:24.630Z,101475.91
2023-06-22T17:50:29.921Z,101474.50
2023-06-22T17:52:34.146Z,101474.50
2023-06-22T17:54:40.117Z,101471.41
2023-06-22T17:56:52.871Z,101476.50
2023-06-22T17:58:57.008Z,101475.06
2023-06-22T18:01:01.059Z,101479.03
2023-06-22T18:03:05.368Z,101481.31
2023-06-22T18:05:09.879Z,101480.00
2023-06-22T18:07:15.727Z,101476.78
2023-06-22T18:09:19.778Z,101471.69
2023-06-22T18:11:28.085Z,101470.13
2023-06-22T18:13:32.794Z,101470.56
2023-06-22T18:15:38.583Z,101471.97
2023-06-22T18:17:43.992Z,101479.59
2023-06-22T18:19:49.881Z,101470.97
2023-06-22T18:21:53.876Z,101468.97
2023-06-22T18:23:59.884Z,101466.84
2023-06-22T18:26:06.196Z,101470.38
2023-06-22T18:28:12.569Z,101464.16
2023-06-22T18:30:18.479Z,101473.50
2023-06-22T18:32:22.956Z,101471.41
2023-06-22T18:34:29.411Z,101471.69
2023-06-22T18:36:39.428Z,101477.06
2023-06-22T18:38:45.229Z,101477.75
2023-06-22T18:40:54.011Z,101461.78
2023-06-22T18:43:02.450Z,101471.94
2023-06-22T18:45:25.814Z,101464.47
2023-06-22T18:47:31.517Z,101470.38
2023-06-22T18:49:47.545Z,101467.69
2023-06-22T18:51:56.602Z,101469.41
2023-06-22T18:54:08.363Z,101473.38
2023-06-22T18:56:17.794Z,101469.25
2023-06-22T18:58:27.458Z,101463.75
2023-06-22T19:00:33.350Z,101470.81
2023-06-22T19:02:43.964Z,101475.31
2023-06-22T19:04:48.306Z,101470.81
2023-06-22T19:06:58.568Z,101475.31
2023-06-22T19:09:20.520Z,101474.63
2023-06-22T19:11:30.140Z,101475.00
2023-06-22T19:13:34.603Z,101485.59
2023-06-22T19:15:39.488Z,101474.69
2023-06-22T19:17:45.845Z,101474.38
2023-06-22T19:19:49.934Z,101476.66
2023-06-22T19:22:02.668Z,101478.59
2023-06-22T19:24:07.127Z,101470.69
2023-06-22T19:26:12.620Z,101475.47
2023-06-22T19:28:18.154Z,101476.34
2023-06-22T19:30:23.194Z,101477.31
2023-06-22T19:32:28.084Z,101474.50
2023-06-22T19:34:38.217Z,101475.47
2023-06-22T19:36:42.528Z,101473.22
2023-06-22T19:38:46.783Z,101486.03
2023-06-22T19:40:51.187Z,101480.94
2023-06-22T19:42:57.358Z,101474.59
2023-06-22T19:45:05.285Z,101473.63
2023-06-22T19:47:10.592Z,101479.41
2023-06-22T19:49:18.516Z,101471.81
2023-06-22T19:51:23.517Z,101473.25
2023-06-22T19:53:27.306Z,101469.28
2023-06-22T19:55:31.711Z,101476.09
2023-06-22T19:57:39.154Z,101469.44
2023-06-22T19:59:43.244Z,101463.69
2023-06-22T20:01:49.042Z,101464.25
2023-06-22T20:03:52.874Z,101462.53
2023-06-22T20:05:57.039Z,101469.44
2023-06-22T20:08:06.063Z,101473.53
2023-06-22T20:10:15.501Z,101474.34
2023-06-22T20:12:26.461Z,101479.41
2023-06-22T20:14:33.869Z,101471.78
2023-06-22T20:16:57.052Z,101480.94
2023-06-22T20:19:07.859Z,101483.59
2023-06-22T20:21:13.622Z,101485.53
2023-06-22T20:23:22.047Z,101483.38
2023-06-22T20:25:28.002Z,101485.19
2023-06-22T20:27:32.252Z,101491.31
2023-06-22T20:29:38.780Z,101491.44
2023-06-22T20:31:43.886Z,101488.47
2023-06-22T20:33:49.438Z,101489.78
2023-06-22T20:35:53.759Z,101476.53
2023-06-22T20:37:57.882Z,101488.31
2023-06-22T20:40:01.840Z,101491.28
2023-06-22T20:42:07.339Z,101495.13
2023-06-22T20:44:12.132Z,101496.69
2023-06-22T20:46:18.157Z,101491.34
2023-06-22T20:48:36.973Z,101487.06
2023-06-22T20:50:44.075Z,101494.47
2023-06-22T20:52:48.693Z,101497.69
2023-06-22T20:54:53.712Z,101504.56
2023-06-22T20:56:57.520Z,101503.00
2023-06-22T20:59:01.317Z,101501.16
2023-06-22T21:01:05.016Z,101501.91
2023-06-22T21:03:12.331Z,101507.00
2023-06-22T21:05:16.621Z,101513.38
2023-06-22T21:07:21.794Z,101514.91
2023-06-22T21:09:28.023Z,101519.44
2023-06-22T21:11:33.802Z,101519.44
2023-06-22T21:13:37.662Z,101518.00
2023-06-22T21:15:41.271Z,101517.25
2023-06-22T21:17:45.191Z,101523.88
2023-06-22T21:19:48.681Z,101514.53
2023-06-22T21:21:52.665Z,101519.31
2023-06-22T21:23:57.871Z,101513.09
2023-06-22T21:26:01.691Z,101512.53
2023-06-22T21:28:06.107Z,101519.84
2023-06-22T21:30:11.875Z,101509.97
2023-06-22T21:32:15.674Z,101508.84
2023-06-22T21:34:19.435Z,101512.38
2023-06-22T21:36:23.417Z,101513.50
2023-06-22T21:38:27.028Z,101515.22
2023-06-22T21:40:32.296Z,101508.84
2023-06-22T21:42:36.352Z,101511.41
2023-06-22T21:44:40.132Z,101511.28
2023-06-22T21:46:44.141Z,101515.63
2023-06-22T21:48:48.999Z,101515.53
2023-06-22T21:50:53.261Z,101517.94
2023-06-22T21:52:58.032Z,101520.34
2023-06-22T21:55:01.894Z,101522.19
2023-06-22T21:57:08.284Z,101515.72
2023-06-22T21:59:12.875Z,101512.03
2023-06-22T22:01:17.198Z,101521.66
2023-06-22T22:03:21.983Z,101515.19
2023-06-22T22:05:25.426Z,101518.72
2023-06-22T22:07:31.695Z,101514.06
2023-06-22T22:09:35.792Z,101517.47
2023-06-22T22:11:39.872Z,101516.47
2023-06-22T22:13:45.663Z,101509.16
2023-06-22T22:15:50.464Z,101507.16
2023-06-22T22:17:53.958Z,101507.03
2023-06-22T22:19:58.294Z,101506.06
2023-06-22T22:22:02.483Z,101505.91
2023-06-22T22:24:06.171Z,101505.91
2023-06-22T22:26:10.332Z,101507.63
2023-06-22T22:28:14.180Z,101502.13
2023-06-22T22:30:19.908Z,101507.22
2023-06-22T22:32:23.848Z,101499.03
2023-06-22T22:34:27.405Z,101504.97
2023-06-22T22:36:31.197Z,101495.81
2023-06-22T22:38:36.304Z,101484.78
2023-06-22T22:40:40.081Z,101486.50
2023-06-22T22:42:43.847Z,101482.84
2023-06-22T22:44:47.558Z,101479.88
2023-06-22T22:46:52.902Z,101482.56
2023-06-22T22:48:56.793Z,101479.72
2023-06-22T22:51:00.528Z,101472.41
2023-06-22T22:53:05.466Z,101468.84
2023-06-22T22:55:10.492Z,101483.13
2023-06-22T22:57:14.478Z,101480.31
2023-06-22T22:59:18.429Z,101475.91
2023-06-22T23:01:22.460Z,101475.91
2023-06-22T23:03:28.458Z,101473.25
2023-06-22T23:05:32.361Z,101473.25
2023-06-22T23:07:36.278Z,101465.19
2023-06-22T23:09:40.154Z,101458.84
2023-06-22T23:11:44.087Z,101464.19
2023-06-22T23:13:47.947Z,101463.22
2023-06-22T23:15:53.291Z,101462.50
2023-06-22T23:17:57.189Z,101469.84
2023-06-22T23:20:08.713Z,101474.22
2023-06-22T23:22:12.773Z,101463.47
2023-06-22T23:24:16.714Z,101474.22
2023-06-22T23:26:20.609Z,101476.91
2023-06-22T23:28:36.706Z,101476.91
2023-06-22T23:30:42.019Z,101479.59
2023-06-22T23:32:45.787Z,101469.84
2023-06-22T23:34:49.794Z,101471.66
2023-06-22T23:36:55.025Z,101485.97
2023-06-22T23:38:58.742Z,101487.91
2023-06-22T23:41:02.437Z,101489.63
2023-06-22T23:43:09.486Z,101490.59
2023-06-22T23:45:13.325Z,101494.16
2023-06-22T23:47:17.080Z,101496.84
2023-06-22T23:49:20.977Z,101502.31